createdAt,value
2022-10-12T00:00:35.036Z,12.88
2022-10-12T00:04:36.555Z,12.84
2022-10-12T00:08:39.791Z,12.76
2022-10-12T00:12:41.387Z,12.69
2022-10-12T00:16:42.878Z,12.63
2022-10-12T00:20:44.958Z,12.58
2022-10-12T00:24:47.057Z,12.59
2022-10-12T00:28:49.274Z,12.49
2022-10-12T00:32:50.851Z,12.43
2022-10-12T00:36:52.421Z,12.31
2022-10-12T00:40:53.928Z,12.22
2022-10-12T00:44:55.664Z,12.11
2022-10-12T00:49:15.243Z,12.03
2022-10-12T00:53:20.581Z,11.88
2022-10-12T00:57:23.982Z,11.82
2022-10-12T01:01:25.671Z,11.79
2022-10-12T01:05:27.874Z,11.81
2022-10-12T01:09:29.924Z,11.77
2022-10-12T01:13:31.977Z,11.78
2022-10-12T01:18:05.994Z,11.81
2022-10-12T01:22:11.807Z,11.87
2022-10-12T01:26:26.224Z,11.93
2022-10-12T01:30:36.120Z,11.98
2022-10-12T01:34:55.535Z,12.03
2022-10-12T01:39:21.366Z,12.08
2022-10-12T01:43:23.575Z,12.13
2022-10-12T01:47:25.154Z,12.07
2022-10-12T01:51:40.601Z,12.08
2022-10-12T01:56:11.463Z,12.12
2022-10-12T02:00:15.594Z,12.05
2022-10-12T02:04:19.856Z,12.04
2022-10-12T02:08:26.306Z,12.05
2022-10-12T02:12:30.032Z,12.04
2022-10-12T02:16:39.440Z,11.97
2022-10-12T02:20:42.362Z,11.96
2022-10-12T02:24:47.568Z,11.98
2022-10-12T02:28:50.397Z,12.00
2022-10-12T02:33:02.474Z,11.98
2022-10-12T02:37:23.856Z,12.01
2022-10-12T02:41:30.547Z,11.98
2022-10-12T02:45:34.418Z,12.00
2022-10-12T02:49:37.127Z,11.96
2022-10-12T02:53:39.042Z,11.84
2022-10-12T02:57:40.675Z,11.85
2022-10-12T03:01:42.677Z,11.78
2022-10-12T03:05:44.488Z,11.75
2022-10-12T03:09:45.979Z,11.84
2022-10-12T03:13:47.505Z,11.94
2022-10-12T03:17:49.004Z,11.84
2022-10-12T03:21:50.514Z,11.82
2022-10-12T03:25:52.081Z,11.81
2022-10-12T03:29:53.647Z,11.77
2022-10-12T03:33:55.213Z,11.77
2022-10-12T03:37:56.746Z,11.70
2022-10-12T03:41:58.270Z,11.70
2022-10-12T03:45:59.766Z,11.72
2022-10-12T03:50:01.504Z,11.70
2022-10-12T03:54:03.040Z,11.72
2022-10-12T03:58:04.631Z,11.62
2022-10-12T04:02:06.171Z,11.56
2022-10-12T04:06:07.830Z,11.53
2022-10-12T04:10:09.495Z,11.51
2022-10-12T04:14:11.046Z,11.60
2022-10-12T04:18:12.844Z,11.63
2022-10-12T04:22:14.659Z,11.69
2022-10-12T04:26:16.521Z,11.69
2022-10-12T04:30:18.615Z,11.62
2022-10-12T04:34:20.522Z,11.53
2022-10-12T04:38:22.021Z,11.45
2022-10-12T04:42:23.615Z,11.44
2022-10-12T04:46:25.557Z,11.48
2022-10-12T04:50:30.011Z,11.44
2022-10-12T04:54:32.795Z,11.48
2022-10-12T04:58:34.392Z,11.49
2022-10-12T05:02:36.131Z,11.49
2022-10-12T05:06:37.685Z,11.45
2022-10-12T05:10:39.997Z,11.41
2022-10-12T05:14:44.125Z,11.31
2022-10-12T05:18:45.647Z,11.24
2022-10-12T05:22:47.177Z,11.21
2022-10-12T05:26:48.705Z,11.13
2022-10-12T05:30:51.292Z,11.03
2022-10-12T05:34:52.834Z,11.03
2022-10-12T05:38:54.593Z,10.98
2022-10-12T05:42:56.072Z,10.93
2022-10-12T05:46:57.702Z,10.90
2022-10-12T05:50:59.224Z,10.91
2022-10-12T05:55:00.730Z,10.90
2022-10-12T05:59:03.632Z,10.86
2022-10-12T06:03:05.217Z,10.87
2022-10-12T06:07:07.090Z,10.91
2022-10-12T06:11:08.575Z,10.87
2022-10-12T06:15:10.332Z,10.90
2022-10-12T06:19:12.083Z,10.87
2022-10-12T06:23:13.654Z,10.90
2022-10-12T06:27:17.391Z,10.91
2022-10-12T06:31:18.893Z,10.88
2022-10-12T06:35:20.925Z,10.91
2022-10-12T06:39:25.412Z,10.91
2022-10-12T06:43:28.202Z,10.95
2022-10-12T06:47:29.679Z,10.98
2022-10-12T06:51:31.272Z,10.99
2022-10-12T06:55:32.884Z,11.05
2022-10-12T06:59:34.395Z,11.13
2022-10-12T07:03:35.970Z,11.23
2022-10-12T07:07:38.063Z,11.30
2022-10-12T07:11:39.635Z,11.31
2022-10-12T07:15:41.264Z,11.33
2022-10-12T07:19:42.794Z,11.33
2022-10-12T07:23:46.215Z,11.41
2022-10-12T07:27:48.598Z,11.44
2022-10-12T07:31:52.057Z,11.48
2022-10-12T07:36:12.764Z,11.59
2022-10-12T07:40:15.884Z,11.62
2022-10-12T07:44:18.604Z,11.69
2022-10-12T07:48:20.394Z,11.79
2022-10-12T07:52:21.930Z,11.90
2022-10-12T07:56:23.443Z,12.00
2022-10-12T08:00:25.395Z,12.05
2022-10-12T08:04:26.931Z,12.21
2022-10-12T08:08:28.459Z,12.22
2022-10-12T08:12:30.134Z,12.26
2022-10-12T08:16:31.685Z,12.25
2022-10-12T08:20:33.207Z,12.18
2022-10-12T08:24:35.767Z,12.19
2022-10-12T08:28:37.488Z,12.21
2022-10-12T08:32:39.124Z,12.16
2022-10-12T08:36:40.622Z,12.19
2022-10-12T08:41:20.903Z,12.25
2022-10-12T08:45:22.308Z,12.31
2022-10-12T08:49:26.330Z,12.46
2022-10-12T08:53:35.674Z,12.63
2022-10-12T08:57:37.196Z,12.80
2022-10-12T09:02:01.855Z,12.92
2022-10-12T09:06:14.713Z,12.96
2022-10-12T09:10:44.938Z,13.06
2022-10-12T09:14:49.750Z,13.12
2022-10-12T09:19:08.272Z,13.10
2022-10-12T09:23:29.424Z,13.07
2022-10-12T09:27:31.839Z,13.13
2022-10-12T09:31:36.146Z,13.19
2022-10-12T09:35:37.704Z,13.22
2022-10-12T09:39:40.690Z,13.36
2022-10-12T09:43:42.387Z,13.39
2022-10-12T09:48:17.203Z,13.53
2022-10-12T09:52:29.723Z,13.63
2022-10-12T09:56:46.552Z,13.68
2022-10-12T10:01:16.434Z,13.68
2022-10-12T10:05:28.028Z,13.80
2022-10-12T10:09:33.397Z,13.93
2022-10-12T10:13:37.794Z,14.16
2022-10-12T10:17:39.462Z,14.31
2022-10-12T10:21:40.994Z,14.44
2022-10-12T10:25:42.730Z,14.63
2022-10-12T10:29:45.464Z,14.80
2022-10-12T10:34:15.882Z,14.83
2022-10-12T10:38:17.470Z,15.05
2022-10-12T10:42:32.554Z,15.18
2022-10-12T10:46:36.417Z,15.40
2022-10-12T10:50:41.242Z,15.58
2022-10-12T10:54:42.898Z,15.62
2022-10-12T10:58:45.868Z,15.55
2022-10-12T11:03:13.175Z,15.73
2022-10-12T11:07:31.504Z,15.71
2022-10-12T11:11:37.415Z,15.73
2022-10-12T11:15:48.555Z,15.74
2022-10-12T11:19:54.784Z,15.76
2022-10-12T11:24:09.706Z,15.78
2022-10-12T11:28:15.619Z,15.92
2022-10-12T11:32:34.769Z,15.95
2022-10-12T11:36:51.256Z,16.07
2022-10-12T11:41:33.864Z,16.14
2022-10-12T11:45:36.612Z,16.17
2022-10-12T11:50:01.258Z,16.18
2022-10-12T11:54:24.619Z,16.30
2022-10-12T11:58:48.797Z,16.41
2022-10-12T12:03:08.633Z,16.59
2022-10-12T12:07:43.286Z,16.77
2022-10-12T12:11:44.869Z,16.80
2022-10-12T12:15:52.391Z,16.92
2022-10-12T12:19:55.102Z,17.03
2022-10-12T12:23:56.784Z,17.10
2022-10-12T12:28:05.770Z,17.15
2022-10-12T12:32:07.394Z,17.21
2022-10-12T12:36:12.531Z,17.28
2022-10-12T12:40:23.973Z,17.40
2022-10-12T12:44:41.968Z,17.53
2022-10-12T12:48:43.572Z,17.62
2022-10-12T12:52:45.429Z,17.70
2022-10-12T12:57:05.264Z,17.77
2022-10-12T13:01:31.326Z,17.86
2022-10-12T13:06:18.198Z,17.89
2022-10-12T13:10:28.653Z,17.95
2022-10-12T13:15:02.623Z,17.98
2022-10-12T13:19:12.522Z,18.07
2022-10-12T13:23:19.402Z,18.17
2022-10-12T13:27:26.564Z,18.29
2022-10-12T13:31:35.472Z,18.38
2022-10-12T13:35:43.055Z,18.42
2022-10-12T13:39:47.007Z,18.53
2022-10-12T13:43:48.622Z,18.64
2022-10-12T13:47:50.174Z,18.74
2022-10-12T13:51:59.437Z,18.79
2022-10-12T13:56:05.607Z,18.89
2022-10-12T14:00:20.305Z,18.93
2022-10-12T14:04:22.166Z,19.02
2022-10-12T14:08:26.378Z,19.10
2022-10-12T14:12:30.295Z,19.17
2022-10-12T14:16:31.796Z,19.24
2022-10-12T14:20:39.079Z,19.23
2022-10-12T14:24:40.741Z,19.24
2022-10-12T14:28:42.348Z,19.23
2022-10-12T14:32:44.780Z,19.25
2022-10-12T14:36:46.312Z,19.21
2022-10-12T14:40:47.832Z,19.15
2022-10-12T14:44:50.562Z,19.01
2022-10-12T14:48:52.045Z,18.90
2022-10-12T14:53:04.952Z,18.87
2022-10-12T14:57:15.148Z,18.83
2022-10-12T15:01:16.957Z,18.71
2022-10-12T15:05:21.631Z,18.66
2022-10-12T15:09:23.140Z,18.69
2022-10-12T15:13:24.654Z,18.69
2022-10-12T15:17:26.436Z,18.71
2022-10-12T15:21:28.101Z,18.59
2022-10-12T15:25:39.972Z,18.47
2022-10-12T15:29:42.291Z,18.38
2022-10-12T15:33:44.059Z,18.29
2022-10-12T15:37:45.803Z,18.21
2022-10-12T15:41:47.365Z,18.13
2022-10-12T15:45:49.613Z,18.05
2022-10-12T15:49:51.197Z,17.98
2022-10-12T15:53:54.042Z,17.91
2022-10-12T15:57:56.372Z,17.81
2022-10-12T16:01:58.390Z,17.73
2022-10-12T16:05:59.898Z,17.63
2022-10-12T16:10:01.699Z,17.54
2022-10-12T16:14:03.237Z,17.43
2022-10-12T16:18:05.259Z,17.35
2022-10-12T16:22:06.882Z,17.24
2022-10-12T16:26:12.161Z,17.15
2022-10-12T16:30:14.748Z,17.05
2022-10-12T16:34:16.249Z,16.96
2022-10-12T16:38:20.059Z,16.85
2022-10-12T16:42:22.295Z,16.75
2022-10-12T16:46:23.871Z,16.66
2022-10-12T16:50:25.870Z,16.57
2022-10-12T16:54:28.867Z,16.48
2022-10-12T16:58:30.448Z,16.41
2022-10-12T17:02:32.070Z,16.32
2022-10-12T17:06:33.693Z,16.25
2022-10-12T17:10:40.633Z,16.16
2022-10-12T17:14:42.274Z,16.10
2022-10-12T17:18:43.808Z,16.04
2022-10-12T17:22:45.368Z,15.98
2022-10-12T17:26:47.689Z,15.91
2022-10-12T17:30:49.377Z,15.85
2022-10-12T17:34:50.963Z,15.80
2022-10-12T17:38:54.194Z,15.73
2022-10-12T17:42:55.938Z,15.70
2022-10-12T17:46:58.733Z,15.66
2022-10-12T17:51:09.596Z,15.60
2022-10-12T17:55:24.306Z,15.59
2022-10-12T17:59:32.756Z,15.51
2022-10-12T18:03:34.297Z,15.44
2022-10-12T18:07:37.460Z,15.43
2022-10-12T18:11:39.433Z,15.40
2022-10-12T18:15:43.473Z,15.35
2022-10-12T18:19:47.049Z,15.34
2022-10-12T18:23:49.126Z,15.30
2022-10-12T18:27:51.511Z,15.25
2022-10-12T18:31:54.011Z,15.20
2022-10-12T18:35:55.619Z,15.19
2022-10-12T18:39:57.614Z,15.15
2022-10-12T18:44:01.229Z,15.15
2022-10-12T18:48:06.889Z,15.13
2022-10-12T18:52:08.701Z,15.11
2022-10-12T18:56:10.934Z,15.11
2022-10-12T19:00:12.951Z,15.07
2022-10-12T19:04:14.893Z,15.04
2022-10-12T19:08:16.438Z,14.98
2022-10-12T19:12:19.823Z,14.93
2022-10-12T19:16:22.440Z,14.85
2022-10-12T19:20:24.272Z,14.78
2022-10-12T19:24:25.896Z,14.71
2022-10-12T19:28:27.553Z,14.67
2022-10-12T19:32:29.051Z,14.66
2022-10-12T19:36:32.751Z,14.60
2022-10-12T19:40:35.660Z,14.56
2022-10-12T19:44:37.189Z,14.54
2022-10-12T19:48:39.903Z,14.53
2022-10-12T19:52:41.564Z,14.48
2022-10-12T19:56:43.379Z,14.44
2022-10-12T20:00:45.096Z,14.42
2022-10-12T20:04:46.720Z,14.39
2022-10-12T20:08:48.791Z,14.34
2022-10-12T20:12:50.412Z,14.27
2022-10-12T20:16:52.229Z,14.21
2022-10-12T20:20:54.488Z,14.20
2022-10-12T20:24:55.999Z,14.20
2022-10-12T20:28:57.533Z,14.19
2022-10-12T20:33:00.703Z,14.23
2022-10-12T20:37:02.290Z,14.21
2022-10-12T20:41:06.387Z,14.21
2022-10-12T20:45:09.472Z,14.20
2022-10-12T20:49:11.144Z,14.21
2022-10-12T20:53:12.799Z,14.20
2022-10-12T20:57:14.374Z,14.16
2022-10-12T21:01:17.165Z,14.13
2022-10-12T21:05:18.840Z,14.09
2022-10-12T21:09:20.442Z,14.05
2022-10-12T21:13:22.206Z,14.02
2022-10-12T21:17:23.913Z,14.02
2022-10-12T21:21:25.510Z,14.02
2022-10-12T21:25:27.328Z,13.99
2022-10-12T21:29:29.030Z,14.01
2022-10-12T21:33:30.540Z,14.01
2022-10-12T21:37:32.080Z,13.98
2022-10-12T21:41:33.699Z,13.94
2022-10-12T21:45:35.318Z,13.94
2022-10-12T21:49:36.800Z,13.94
2022-10-12T21:53:39.245Z,13.98
2022-10-12T21:57:40.902Z,14.01
2022-10-12T22:01:42.535Z,14.01
2022-10-12T22:05:44.620Z,14.01
2022-10-12T22:09:46.178Z,13.99
2022-10-12T22:13:48.100Z,13.99
2022-10-12T22:17:49.600Z,13.99
2022-10-12T22:21:52.080Z,13.96
2022-10-12T22:25:59.081Z,13.93
2022-10-12T22:30:00.733Z,13.84
2022-10-12T22:34:02.407Z,13.81
2022-10-12T22:38:07.673Z,13.79
2022-10-12T22:42:09.361Z,13.76
2022-10-12T22:46:11.000Z,13.73
2022-10-12T22:50:12.556Z,13.71
2022-10-12T22:54:14.092Z,13.65
2022-10-12T22:58:16.086Z,13.65
2022-10-12T23:02:17.930Z,13.61
2022-10-12T23:06:19.679Z,13.55
2022-10-12T23:10:21.818Z,13.43
2022-10-12T23:14:23.335Z,13.39
2022-10-12T23:18:24.909Z,13.39
2022-10-12T23:22:27.965Z,13.36
2022-10-12T23:26:29.710Z,13.32
2022-10-12T23:30:31.338Z,13.36
2022-10-12T23:34:32.840Z,13.36
2022-10-12T23:38:35.983Z,13.32
2022-10-12T23:42:37.442Z,13.31
2022-10-12T23:46:38.973Z,13.32
2022-10-12T23:50:40.865Z,13.32
2022-10-12T23:54:42.352Z,13.29
2022-10-12T23:58:43.873Z,13.31
